createdAt,value
2022-10-05T00:00:01.138Z,85.1
2022-10-05T00:01:00.268Z,85.2
2022-10-05T00:02:00.573Z,85.2
2022-10-05T00:03:00.548Z,85
2022-10-05T00:04:00.778Z,85.1
2022-10-05T00:05:00.892Z,85.1
2022-10-05T00:06:01.021Z,85.1
2022-10-05T00:07:01.139Z,85
2022-10-05T00:08:00.288Z,85.2
2022-10-05T00:09:00.444Z,85.1
2022-10-05T00:10:00.590Z,85.2
2022-10-05T00:11:00.740Z,85
2022-10-05T00:12:00.884Z,84.9
2022-10-05T00:13:01.026Z,85
2022-10-05T00:14:01.201Z,85
2022-10-05T00:15:00.317Z,85.1
2022-10-05T00:16:00.464Z,85.1
2022-10-05T00:17:00.703Z,85.1
2022-10-05T00:18:00.769Z,85.2
2022-10-05T00:19:00.923Z,85
2022-10-05T00:20:01.068Z,85.1
2022-10-05T00:21:01.210Z,85
2022-10-05T00:22:00.354Z,85.1
2022-10-05T00:23:00.504Z,85
2022-10-05T00:24:00.674Z,85.2
2022-10-05T00:25:00.782Z,85.2
2022-10-05T00:26:00.933Z,85.2
2022-10-05T00:27:01.091Z,85.3
2022-10-05T00:28:01.323Z,85.3
2022-10-05T00:29:00.413Z,85.4
2022-10-05T00:30:00.538Z,85.3
2022-10-05T00:31:00.705Z,84.8
2022-10-05T00:32:00.916Z,84.8
2022-10-05T00:33:00.984Z,84.8
2022-10-05T00:34:01.135Z,85.1
2022-10-05T00:35:00.287Z,85
2022-10-05T00:36:00.454Z,85.2
2022-10-05T00:37:00.574Z,85
2022-10-05T00:38:00.722Z,85.2
2022-10-05T00:39:00.856Z,85
2022-10-05T00:40:01.027Z,85
2022-10-05T00:41:01.154Z,84.9
2022-10-05T00:42:00.292Z,84.9
2022-10-05T00:43:00.466Z,84.8
2022-10-05T00:44:00.582Z,84.9
2022-10-05T00:45:00.731Z,85.2
2022-10-05T00:46:00.945Z,85
2022-10-05T00:47:01.029Z,84.8
2022-10-05T00:48:01.203Z,85
2022-10-05T00:49:00.323Z,84.8
2022-10-05T00:50:00.480Z,84.8
2022-10-05T00:51:00.638Z,84.7
2022-10-05T00:52:00.790Z,84.7
2022-10-05T00:53:00.953Z,84.6
2022-10-05T00:54:01.083Z,84.6
2022-10-05T00:55:01.224Z,84.6
2022-10-05T00:56:00.381Z,84.6
2022-10-05T00:57:00.527Z,84.6
2022-10-05T00:58:00.697Z,84.5
2022-10-05T00:59:00.849Z,84.6
2022-10-05T01:00:00.980Z,84.5
2022-10-05T01:01:01.161Z,84.7
2022-10-05T01:02:00.352Z,84.5
2022-10-05T01:03:00.417Z,84.6
2022-10-05T01:04:00.588Z,84.6
2022-10-05T01:05:00.721Z,84.7
2022-10-05T01:06:00.880Z,84.7
2022-10-05T01:07:01.007Z,84.5
2022-10-05T01:08:01.151Z,84.5
2022-10-05T01:09:00.330Z,84.6
2022-10-05T01:10:00.444Z,84.6
2022-10-05T01:11:00.621Z,84.6
2022-10-05T01:12:00.766Z,84.6
2022-10-05T01:13:00.904Z,84.5
2022-10-05T01:14:01.064Z,84.5
2022-10-05T01:15:01.173Z,84.4
2022-10-05T01:16:00.389Z,84.4
2022-10-05T01:17:00.539Z,84.4
2022-10-05T01:18:00.628Z,84.6
2022-10-05T01:19:00.788Z,84.7
2022-10-05T01:20:00.944Z,84.7
2022-10-05T01:21:01.066Z,84.6
2022-10-05T01:22:01.217Z,84.7
2022-10-05T01:23:00.358Z,84.5
2022-10-05T01:24:00.512Z,84.7
2022-10-05T01:25:00.682Z,84.8
2022-10-05T01:26:00.809Z,84.8
2022-10-05T01:27:00.958Z,84.9
2022-10-05T01:28:01.173Z,84.7
2022-10-05T01:29:01.263Z,84.7
2022-10-05T01:30:00.409Z,84.8
2022-10-05T01:31:00.532Z,84.6
2022-10-05T01:32:00.677Z,84.7
2022-10-05T01:33:00.823Z,84.7
2022-10-05T01:34:00.979Z,84.9
2022-10-05T01:35:01.140Z,85.1
2022-10-05T01:36:00.272Z,85.2
2022-10-05T01:37:00.433Z,85
2022-10-05T01:38:00.584Z,85
2022-10-05T01:39:00.735Z,85
2022-10-05T01:40:00.896Z,84.9
2022-10-05T01:41:01.038Z,85
2022-10-05T01:42:01.173Z,85
2022-10-05T01:43:00.301Z,85.1
2022-10-05T01:44:00.453Z,85.1
2022-10-05T01:45:00.622Z,85.2
2022-10-05T01:46:00.844Z,85.2
2022-10-05T01:47:00.921Z,85.3
2022-10-05T01:48:01.065Z,85.4
2022-10-05T01:49:01.214Z,85.5
2022-10-05T01:50:00.364Z,85.6
2022-10-05T01:51:00.535Z,85.5
2022-10-05T01:52:00.666Z,85.4
2022-10-05T01:53:00.813Z,85.7
2022-10-05T01:54:00.961Z,85.6
2022-10-05T01:55:01.110Z,85.7
2022-10-05T01:56:00.276Z,86
2022-10-05T01:57:00.430Z,86
2022-10-05T01:58:00.556Z,86
2022-10-05T01:59:00.699Z,86
2022-10-05T02:00:00.840Z,85.9
2022-10-05T02:01:01.044Z,86.3
2022-10-05T02:02:01.214Z,86.3
2022-10-05T02:03:00.307Z,86.4
2022-10-05T02:04:00.451Z,86.4
2022-10-05T02:05:02.337Z,86.3
2022-10-05T02:06:00.756Z,86.1
2022-10-05T02:07:00.888Z,86
2022-10-05T02:08:01.052Z,86
2022-10-05T02:09:01.188Z,85.9
2022-10-05T02:10:00.331Z,85.9
2022-10-05T02:11:00.502Z,85.8
2022-10-05T02:12:00.617Z,85.8
2022-10-05T02:13:00.759Z,85.6
2022-10-05T02:14:00.905Z,85.7
2022-10-05T02:15:01.056Z,85.7
2022-10-05T02:16:01.384Z,85.7
2022-10-05T02:17:00.351Z,85.7
2022-10-05T02:18:00.507Z,85.8
2022-10-05T02:19:00.656Z,85.8
2022-10-05T02:20:00.806Z,85.9
2022-10-05T02:21:00.977Z,85.9
2022-10-05T02:22:01.086Z,85.9
2022-10-05T02:23:01.239Z,85.9
2022-10-05T02:24:00.381Z,86.1
2022-10-05T02:25:00.526Z,86
2022-10-05T02:26:00.698Z,86.3
2022-10-05T02:27:00.816Z,86.6
2022-10-05T02:28:01.046Z,86.6
2022-10-05T02:29:01.114Z,86.7
2022-10-05T02:30:00.255Z,86.7
2022-10-05T02:31:00.429Z,86.5
2022-10-05T02:32:00.543Z,86.4
2022-10-05T02:33:00.702Z,86.6
2022-10-05T02:34:00.852Z,86.7
2022-10-05T02:35:01.012Z,86.4
2022-10-05T02:36:01.163Z,86.3
2022-10-05T02:37:00.328Z,86.3
2022-10-05T02:38:00.445Z,86.7
2022-10-05T02:39:00.606Z,86.7
2022-10-05T02:40:00.742Z,87
2022-10-05T02:41:00.893Z,86.9
2022-10-05T02:42:01.059Z,87
2022-10-05T02:43:01.202Z,87.1
2022-10-05T02:44:00.327Z,87
2022-10-05T02:45:00.481Z,86.9
2022-10-05T02:46:00.669Z,87
2022-10-05T02:47:00.826Z,87.1
2022-10-05T02:48:00.920Z,87.4
2022-10-05T02:49:01.065Z,87.5
2022-10-05T02:50:01.215Z,87.7
2022-10-05T02:51:00.360Z,87.7
2022-10-05T02:52:00.525Z,87.8
2022-10-05T02:53:00.649Z,87.8
2022-10-05T02:54:00.796Z,87.8
2022-10-05T02:55:00.945Z,87.6
2022-10-05T02:56:01.091Z,87
2022-10-05T02:57:01.256Z,86.8
2022-10-05T02:58:00.414Z,86.8
2022-10-05T02:59:00.543Z,86.8
2022-10-05T03:00:00.682Z,86.9
2022-10-05T03:01:00.926Z,86.8
2022-10-05T03:02:01.112Z,87
2022-10-05T03:03:01.151Z,86.9
2022-10-05T03:04:00.280Z,86.9
2022-10-05T03:05:00.423Z,86.8
2022-10-05T03:06:00.577Z,86.7
2022-10-05T03:07:00.736Z,86.7
2022-10-05T03:08:00.886Z,86.8
2022-10-05T03:09:01.047Z,86.8
2022-10-05T03:10:01.482Z,86.8
2022-10-05T03:11:00.322Z,86.7
2022-10-05T03:12:00.460Z,86.8
2022-10-05T03:13:00.608Z,86.9
2022-10-05T03:14:00.792Z,87.1
2022-10-05T03:15:00.910Z,87.2
2022-10-05T03:16:01.110Z,87.2
2022-10-05T03:17:01.218Z,87.2
2022-10-05T03:18:00.344Z,87.6
2022-10-05T03:19:00.525Z,87.7
2022-10-05T03:20:00.644Z,87.6
2022-10-05T03:21:00.802Z,87.5
2022-10-05T03:22:00.946Z,87.2
2022-10-05T03:23:01.097Z,87.1
2022-10-05T03:24:01.272Z,87.1
2022-10-05T03:25:00.393Z,87
2022-10-05T03:26:00.538Z,87
2022-10-05T03:27:00.711Z,87
2022-10-05T03:28:00.918Z,87
2022-10-05T03:29:01.003Z,86.8
2022-10-05T03:30:01.150Z,86.7
2022-10-05T03:31:00.480Z,86.7
2022-10-05T03:32:00.436Z,86.8
2022-10-05T03:33:00.584Z,86.8
2022-10-05T03:34:00.729Z,86.8
2022-10-05T03:35:00.887Z,86.9
2022-10-05T03:36:01.018Z,87
2022-10-05T03:37:01.171Z,86.8
2022-10-05T03:38:00.314Z,86.9
2022-10-05T03:39:00.469Z,86.6
2022-10-05T03:40:00.642Z,86.8
2022-10-05T03:41:00.758Z,86.9
2022-10-05T03:42:00.910Z,87
2022-10-05T03:43:01.055Z,87.1
2022-10-05T03:44:01.225Z,87.3
2022-10-05T03:45:00.361Z,87.4
2022-10-05T03:46:00.562Z,87.6
2022-10-05T03:47:00.639Z,87.7
2022-10-05T03:48:01.728Z,88.1
2022-10-05T03:49:00.946Z,88.7
2022-10-05T03:50:01.114Z,88.7
2022-10-05T03:51:01.240Z,88.6
2022-10-05T03:52:00.387Z,88.7
2022-10-05T03:53:00.528Z,88.7
2022-10-05T03:54:00.672Z,88.6
2022-10-05T03:55:00.838Z,88.5
2022-10-05T03:56:03.209Z,88.6
2022-10-05T03:57:01.109Z,89
2022-10-05T03:58:00.261Z,89.2
2022-10-05T03:59:00.412Z,89.2
2022-10-05T04:00:00.588Z,89.3
2022-10-05T04:01:00.733Z,89.1
2022-10-05T04:02:00.938Z,89
2022-10-05T04:03:01.059Z,88.8
2022-10-05T04:04:01.157Z,88.6
2022-10-05T04:05:00.302Z,89
2022-10-05T04:06:00.489Z,89
2022-10-05T04:07:00.618Z,88.7
2022-10-05T04:08:00.753Z,89
2022-10-05T04:09:00.922Z,89.3
2022-10-05T04:10:01.069Z,89.3
2022-10-05T04:11:01.257Z,89.1
2022-10-05T04:12:00.368Z,89.4
2022-10-05T04:13:00.520Z,89.2
2022-10-05T04:14:00.681Z,89.2
2022-10-05T04:15:00.818Z,89.2
2022-10-05T04:16:01.043Z,89
2022-10-05T04:17:01.110Z,88.9
2022-10-05T04:18:01.260Z,88.7
2022-10-05T04:19:00.399Z,88.9
2022-10-05T04:20:00.547Z,89
2022-10-05T04:21:00.711Z,89.3
2022-10-05T04:22:00.863Z,89.3
2022-10-05T04:23:00.995Z,89.2
2022-10-05T04:24:01.170Z,89.4
2022-10-05T04:25:00.309Z,89.5
2022-10-05T04:26:00.451Z,89.5
2022-10-05T04:27:00.601Z,89.6
2022-10-05T04:28:00.850Z,89.5
2022-10-05T04:29:00.867Z,89.7
2022-10-05T04:30:00.983Z,89.8
2022-10-05T04:31:01.168Z,90
2022-10-05T04:32:00.274Z,90
2022-10-05T04:33:00.439Z,90.2
2022-10-05T04:34:00.573Z,90.2
2022-10-05T04:35:00.717Z,90.3
2022-10-05T04:36:00.868Z,90.3
2022-10-05T04:37:01.019Z,90.3
2022-10-05T04:38:01.178Z,90.4
2022-10-05T04:39:00.328Z,90.3
2022-10-05T04:40:00.456Z,90.4
2022-10-05T04:41:00.633Z,90.4
2022-10-05T04:42:00.753Z,90.5
2022-10-05T04:43:00.902Z,90.5
2022-10-05T04:44:01.050Z,90.5
2022-10-05T04:45:01.198Z,90.7
2022-10-05T04:46:00.375Z,90.7
2022-10-05T04:47:00.618Z,90.7
2022-10-05T04:48:00.644Z,90.8
2022-10-05T04:49:00.771Z,90.8
2022-10-05T04:50:00.920Z,90.8
2022-10-05T04:51:01.080Z,90.9
2022-10-05T04:52:01.203Z,90.8
2022-10-05T04:53:00.351Z,90.8
2022-10-05T04:54:00.499Z,90.9
2022-10-05T04:55:00.652Z,91
2022-10-05T04:56:00.815Z,91
2022-10-05T04:57:00.936Z,91
2022-10-05T04:58:01.089Z,91.1
2022-10-05T04:59:01.270Z,91.2
2022-10-05T05:00:00.391Z,91.2
2022-10-05T05:01:00.608Z,91.1
2022-10-05T05:02:00.674Z,91.1
2022-10-05T05:03:00.818Z,91
2022-10-05T05:04:01.122Z,91
2022-10-05T05:05:01.125Z,91.1
2022-10-05T05:06:17.289Z,91.1
2022-10-05T05:07:00.393Z,91.2
2022-10-05T05:08:00.542Z,91.2
2022-10-05T05:09:00.702Z,91.3
2022-10-05T05:10:00.845Z,91.4
2022-10-05T05:11:00.982Z,91.4
2022-10-05T05:12:01.123Z,91.4
2022-10-05T05:13:00.269Z,91.3
2022-10-05T05:14:00.414Z,91.3
2022-10-05T05:15:00.579Z,91.3
2022-10-05T05:16:00.773Z,91.3
2022-10-05T05:17:00.860Z,91.4
2022-10-05T05:18:01.020Z,91.4
2022-10-05T05:19:01.151Z,91.5
2022-10-05T05:20:00.327Z,91.5
2022-10-05T05:21:00.450Z,91.6
2022-10-05T05:22:00.605Z,91.5
2022-10-05T05:23:00.751Z,91.5
2022-10-05T05:24:00.903Z,91.5
2022-10-05T05:25:01.085Z,91.6
2022-10-05T05:26:01.198Z,91.6
2022-10-05T05:27:00.342Z,91.8
2022-10-05T05:28:00.596Z,91.9
2022-10-05T05:29:00.652Z,91.8
2022-10-05T05:30:00.811Z,91.7
2022-10-05T05:31:01.021Z,91.7
2022-10-05T05:32:01.098Z,91.8
2022-10-05T05:33:01.236Z,91.8
2022-10-05T05:34:00.385Z,91.8
2022-10-05T05:35:00.535Z,91.9
2022-10-05T05:36:00.688Z,91.9
2022-10-05T05:37:00.817Z,91.9
2022-10-05T05:38:00.965Z,92
2022-10-05T05:39:01.126Z,92
2022-10-05T05:40:00.266Z,92
2022-10-05T05:41:00.438Z,92
2022-10-05T05:42:00.580Z,92
2022-10-05T05:43:00.719Z,92
2022-10-05T05:44:00.857Z,92
2022-10-05T05:45:01.019Z,92
2022-10-05T05:46:01.158Z,92
2022-10-05T05:47:04.886Z,92.1
2022-10-05T05:48:00.468Z,92.1
2022-10-05T05:49:00.600Z,92
2022-10-05T05:50:06.373Z,92
2022-10-05T05:51:00.899Z,92
2022-10-05T05:52:01.035Z,92.1
2022-10-05T05:53:01.205Z,92.1
2022-10-05T05:54:00.333Z,92.1
2022-10-05T05:55:00.486Z,92
2022-10-05T05:56:00.632Z,92
2022-10-05T05:57:00.772Z,92
2022-10-05T05:58:00.954Z,92
2022-10-05T05:59:01.080Z,92
2022-10-05T06:00:01.233Z,92
2022-10-05T06:01:00.368Z,92
2022-10-05T06:02:00.574Z,92
2022-10-05T06:03:00.801Z,92
2022-10-05T06:04:00.839Z,92.1
2022-10-05T06:05:00.953Z,92.2
2022-10-05T06:06:01.105Z,92.2
2022-10-05T06:07:01.250Z,92.2
2022-10-05T06:08:00.388Z,92.3
2022-10-05T06:09:00.573Z,92.3
2022-10-05T06:10:00.684Z,92.4
2022-10-05T06:11:00.848Z,92.4
2022-10-05T06:12:00.996Z,92.4
2022-10-05T06:13:01.836Z,92.4
2022-10-05T06:14:00.295Z,92.4
2022-10-05T06:15:00.425Z,92.4
2022-10-05T06:16:00.633Z,92.4
2022-10-05T06:17:00.727Z,92.5
2022-10-05T06:18:00.848Z,92.4
2022-10-05T06:19:01.039Z,92.4
2022-10-05T06:20:04.735Z,92.5
2022-10-05T06:21:00.281Z,92.5
2022-10-05T06:22:00.421Z,92.6
2022-10-05T06:23:00.578Z,92.5
2022-10-05T06:24:00.748Z,92.6
2022-10-05T06:25:00.871Z,92.7
2022-10-05T06:26:01.012Z,92.7
2022-10-05T06:27:01.152Z,92.7
2022-10-05T06:28:00.333Z,92.8
2022-10-05T06:29:00.453Z,92.8
2022-10-05T06:30:00.584Z,92.8
2022-10-05T06:31:00.741Z,92.7
2022-10-05T06:32:01.029Z,92.8
2022-10-05T06:33:01.032Z,92.8
2022-10-05T06:34:01.181Z,92.8
2022-10-05T06:35:00.337Z,92.9
2022-10-05T06:36:00.460Z,92.8
2022-10-05T06:37:00.625Z,92.9
2022-10-05T06:38:00.768Z,92.8
2022-10-05T06:39:00.899Z,92.8
2022-10-05T06:40:01.406Z,92.7
2022-10-05T06:41:01.193Z,92.7
2022-10-05T06:42:00.362Z,92.6
2022-10-05T06:43:00.518Z,92.5
2022-10-05T06:44:00.647Z,92.4
2022-10-05T06:45:00.788Z,92.1
2022-10-05T06:46:01.031Z,91.9
2022-10-05T06:47:01.126Z,91.6
2022-10-05T06:48:05.160Z,91.4
2022-10-05T06:49:00.393Z,91
2022-10-05T06:50:00.545Z,90.8
2022-10-05T06:51:00.683Z,90.4
2022-10-05T06:52:00.846Z,90.3
2022-10-05T06:53:01.015Z,90
2022-10-05T06:54:01.130Z,89.8
2022-10-05T06:55:00.275Z,89.6
2022-10-05T06:56:00.420Z,89.3
2022-10-05T06:57:00.566Z,89.1
2022-10-05T06:58:00.735Z,88.9
2022-10-05T06:59:00.869Z,88.6
2022-10-05T07:00:01.017Z,88.4
2022-10-05T07:01:01.175Z,88.1
2022-10-05T07:02:00.335Z,87.8
2022-10-05T07:03:00.468Z,87.6
2022-10-05T07:04:00.598Z,87.5
2022-10-05T07:05:00.773Z,87.6
2022-10-05T07:06:00.914Z,87.6
2022-10-05T07:07:01.070Z,87.4
2022-10-05T07:08:01.192Z,87.1
2022-10-05T07:09:00.354Z,87.2
2022-10-05T07:10:00.520Z,86.9
2022-10-05T07:11:00.645Z,86.8
2022-10-05T07:12:04.830Z,86.6
2022-10-05T07:13:00.940Z,86.8
2022-10-05T07:14:01.082Z,86.6
2022-10-05T07:15:01.304Z,86.3
2022-10-05T07:16:00.422Z,86
2022-10-05T07:17:00.537Z,85.8
2022-10-05T07:18:00.692Z,85.2
2022-10-05T07:19:00.837Z,85.3
2022-10-05T07:20:00.990Z,85
2022-10-05T07:21:01.136Z,85
2022-10-05T07:22:00.314Z,84.3
2022-10-05T07:23:00.433Z,84.5
2022-10-05T07:24:00.580Z,84.8
2022-10-05T07:25:00.731Z,84.8
2022-10-05T07:26:00.905Z,84.6
2022-10-05T07:27:01.032Z,84.2
2022-10-05T07:28:01.209Z,84.3
2022-10-05T07:29:00.306Z,84.4
2022-10-05T07:30:00.454Z,83.8
2022-10-05T07:31:00.709Z,84
2022-10-05T07:32:00.750Z,83.5
2022-10-05T07:33:00.899Z,83.5
2022-10-05T07:34:01.052Z,83.3
2022-10-05T07:35:01.203Z,83.6
2022-10-05T07:36:00.368Z,83.7
2022-10-05T07:37:00.498Z,83.6
2022-10-05T07:38:00.631Z,83.6
2022-10-05T07:39:00.782Z,83.6
2022-10-05T07:40:01.435Z,83.7
2022-10-05T07:41:01.084Z,83.6
2022-10-05T07:42:01.248Z,83.2
2022-10-05T07:43:00.409Z,82.9
2022-10-05T07:44:02.778Z,83.1
2022-10-05T07:45:00.694Z,83.4
2022-10-05T07:46:00.916Z,83.1
2022-10-05T07:47:00.975Z,82.9
2022-10-05T07:48:01.161Z,83.1
2022-10-05T07:49:00.273Z,82.9
2022-10-05T07:50:00.415Z,82.8
2022-10-05T07:51:00.575Z,83.1
2022-10-05T07:52:00.712Z,83.1
2022-10-05T07:53:00.880Z,82.3
2022-10-05T07:54:00.996Z,82.5
2022-10-05T07:55:01.151Z,82.8
2022-10-05T07:56:00.309Z,82.9
2022-10-05T07:57:00.452Z,82.7
2022-10-05T07:58:00.626Z,82.8
2022-10-05T07:59:00.753Z,82.9
2022-10-05T08:00:00.891Z,82.5
2022-10-05T08:01:01.054Z,82.6
2022-10-05T08:02:01.342Z,82.1
2022-10-05T08:03:00.414Z,82.7
2022-10-05T08:04:00.483Z,82.8
2022-10-05T08:05:00.650Z,82.7
2022-10-05T08:06:00.779Z,82.4
2022-10-05T08:07:00.928Z,81.9
2022-10-05T08:08:01.096Z,81.6
2022-10-05T08:09:01.223Z,81.6
2022-10-05T08:10:00.386Z,82
2022-10-05T08:11:00.500Z,81.6
2022-10-05T08:12:00.659Z,81.2
2022-10-05T08:13:00.801Z,81.4
2022-10-05T08:14:00.966Z,81.7
2022-10-05T08:15:01.151Z,81.9
2022-10-05T08:16:00.322Z,81.3
2022-10-05T08:17:00.411Z,81.8
2022-10-05T08:18:00.567Z,80.9
2022-10-05T08:19:00.707Z,80.9
2022-10-05T08:20:00.876Z,80.9
2022-10-05T08:21:01.005Z,81.2
2022-10-05T08:22:01.153Z,81.6
2022-10-05T08:23:00.293Z,81.4
2022-10-05T08:24:00.442Z,80.7
2022-10-05T08:25:00.598Z,80.5
2022-10-05T08:26:00.751Z,80.4
2022-10-05T08:27:00.879Z,80.7
2022-10-05T08:28:01.157Z,79.9
2022-10-05T08:29:01.162Z,79.6
2022-10-05T08:30:00.307Z,80.4
2022-10-05T08:31:00.546Z,80
2022-10-05T08:32:00.608Z,79.1
2022-10-05T08:33:00.764Z,79.1
2022-10-05T08:34:00.908Z,79.2
2022-10-05T08:35:01.051Z,78.7
2022-10-05T08:36:01.219Z,80
2022-10-05T08:37:00.345Z,78.6
2022-10-05T08:38:00.494Z,78.2
2022-10-05T08:39:00.639Z,78.4
2022-10-05T08:40:00.790Z,77.5
2022-10-05T08:41:00.951Z,78.2
2022-10-05T08:42:01.113Z,77.3
2022-10-05T08:43:01.238Z,78.1
2022-10-05T08:44:00.382Z,77.7
2022-10-05T08:45:00.532Z,76.5
2022-10-05T08:46:00.746Z,77.2
2022-10-05T08:47:00.876Z,77.2
2022-10-05T08:48:01.011Z,77.2
2022-10-05T08:49:01.136Z,77.4
2022-10-05T08:50:00.276Z,77.4
2022-10-05T08:51:00.434Z,76.8
2022-10-05T08:52:00.596Z,77.1
2022-10-05T08:53:00.757Z,76.6
2022-10-05T08:54:00.870Z,76.9
2022-10-05T08:55:01.031Z,76.7
2022-10-05T08:56:01.187Z,77.4
2022-10-05T08:57:00.319Z,77
2022-10-05T08:58:00.490Z,77.5
2022-10-05T08:59:00.613Z,77.8
2022-10-05T09:00:00.774Z,77.5
2022-10-05T09:01:00.973Z,77.6
2022-10-05T09:02:01.080Z,77.7
2022-10-05T09:03:01.337Z,77.9
2022-10-05T09:04:00.370Z,77.4
2022-10-05T09:05:00.517Z,77.4
2022-10-05T09:06:00.714Z,77.1
2022-10-05T09:07:00.811Z,76.9
2022-10-05T09:08:00.973Z,77.2
2022-10-05T09:09:01.135Z,77
2022-10-05T09:10:02.087Z,77.1
2022-10-05T09:11:00.413Z,77.5
2022-10-05T09:12:00.544Z,77.3
2022-10-05T09:13:00.689Z,78
2022-10-05T09:14:00.866Z,77.3
2022-10-05T09:15:24.390Z,77.7
2022-10-05T09:16:01.206Z,77.9
2022-10-05T09:17:00.282Z,77.1
2022-10-05T09:18:00.447Z,77.2
2022-10-05T09:19:00.596Z,76.3
2022-10-05T09:20:00.733Z,75.8
2022-10-05T09:21:00.878Z,76.2
2022-10-05T09:22:01.059Z,75.5
2022-10-05T09:23:01.175Z,76.4
2022-10-05T09:24:00.334Z,76.1
2022-10-05T09:25:00.487Z,76.9
2022-10-05T09:26:00.618Z,75.5
2022-10-05T09:27:00.790Z,76.5
2022-10-05T09:28:00.920Z,77.2
2022-10-05T09:29:01.057Z,75.8
2022-10-05T09:30:01.206Z,76.2
2022-10-05T09:31:00.395Z,76.1
2022-10-05T09:32:00.509Z,76
2022-10-05T09:33:00.639Z,75.9
2022-10-05T09:34:00.795Z,75.4
2022-10-05T09:35:00.941Z,75.4
2022-10-05T09:36:01.094Z,75.2
2022-10-05T09:37:01.265Z,76.3
2022-10-05T09:38:00.395Z,77.2
2022-10-05T09:39:00.561Z,77.2
2022-10-05T09:40:01.663Z,75.9
2022-10-05T09:41:00.831Z,77.7
2022-10-05T09:42:00.983Z,77.1
2022-10-05T09:43:01.135Z,76.9
2022-10-05T09:44:00.286Z,76.4
2022-10-05T09:45:00.471Z,77.8
2022-10-05T09:46:00.651Z,76.8
2022-10-05T09:47:00.741Z,77.4
2022-10-05T09:48:00.881Z,77.9
2022-10-05T09:49:01.041Z,76.3
2022-10-05T09:50:01.215Z,77.3
2022-10-05T09:51:00.335Z,77.1
2022-10-05T09:52:00.486Z,76.2
2022-10-05T09:53:00.622Z,75.4
2022-10-05T09:54:00.768Z,76.2
2022-10-05T09:55:00.961Z,76.2
2022-10-05T09:56:01.065Z,76.6
2022-10-05T09:57:01.234Z,76.4
2022-10-05T09:58:00.360Z,76.7
2022-10-05T09:59:00.502Z,76.7
2022-10-05T10:00:00.740Z,76
2022-10-05T10:01:09.116Z,77.6
2022-10-05T10:02:01.010Z,77.6
2022-10-05T10:03:01.280Z,76.1
2022-10-05T10:04:01.262Z,77
2022-10-05T10:05:00.388Z,76.5
2022-10-05T10:06:00.562Z,76.8
2022-10-05T10:07:00.708Z,77.1
2022-10-05T10:08:00.840Z,77.5
2022-10-05T10:09:00.991Z,77.6
2022-10-05T10:10:01.136Z,77
2022-10-05T10:11:00.276Z,77
2022-10-05T10:12:00.446Z,77
2022-10-05T10:13:00.574Z,77
2022-10-05T10:14:00.730Z,77.5
2022-10-05T10:15:02.997Z,77.5
2022-10-05T10:16:01.074Z,77.5
2022-10-05T10:17:01.187Z,77.4
2022-10-05T10:18:00.309Z,77.5
2022-10-05T10:19:00.463Z,77.3
2022-10-05T10:20:00.603Z,78.1
2022-10-05T10:21:00.758Z,77.8
2022-10-05T10:22:00.916Z,77.2
2022-10-05T10:23:01.069Z,77.8
2022-10-05T10:24:01.198Z,78.7
2022-10-05T10:25:00.351Z,77.2
2022-10-05T10:26:00.502Z,77.2
2022-10-05T10:27:00.656Z,77.4
2022-10-05T10:28:00.836Z,76.5
2022-10-05T10:29:00.949Z,77.6
2022-10-05T10:30:01.119Z,78.2
2022-10-05T10:31:01.298Z,78
2022-10-05T10:32:00.394Z,78.4
2022-10-05T10:33:00.555Z,78.4
2022-10-05T10:34:00.679Z,78
2022-10-05T10:35:00.827Z,78.2
2022-10-05T10:36:03.100Z,77.4
2022-10-05T10:37:01.134Z,77.5
2022-10-05T10:38:00.291Z,78.5
2022-10-05T10:39:00.449Z,77.8
2022-10-05T10:40:00.587Z,77.6
2022-10-05T10:41:00.736Z,78
2022-10-05T10:42:00.883Z,77.6
2022-10-05T10:43:01.021Z,77.5
2022-10-05T10:44:01.187Z,78.5
2022-10-05T10:45:00.312Z,77.3
2022-10-05T10:46:00.526Z,77.4
2022-10-05T10:47:00.668Z,78.2
2022-10-05T10:48:00.767Z,77.9
2022-10-05T10:49:00.940Z,78.2
2022-10-05T10:50:01.057Z,78.8
2022-10-05T10:51:01.199Z,77
2022-10-05T10:52:00.358Z,77.8
2022-10-05T10:53:00.485Z,78.4
2022-10-05T10:54:00.682Z,78.2
2022-10-05T10:55:00.793Z,77.8
2022-10-05T10:56:00.932Z,77
2022-10-05T10:57:01.091Z,76.9
2022-10-05T10:58:01.228Z,77.6
2022-10-05T10:59:00.387Z,76.7
2022-10-05T11:00:00.519Z,77.8
2022-10-05T11:01:00.674Z,78.4
2022-10-05T11:02:00.902Z,77.3
2022-10-05T11:03:01.022Z,77.9
2022-10-05T11:04:01.140Z,77.8
2022-10-05T11:05:00.266Z,77.5
2022-10-05T11:06:00.408Z,77.6
2022-10-05T11:07:00.550Z,77.6
2022-10-05T11:08:00.706Z,77.7
2022-10-05T11:09:00.861Z,78
2022-10-05T11:10:01.011Z,77.9
2022-10-05T11:11:01.141Z,77.7
2022-10-05T11:12:00.281Z,77.3
2022-10-05T11:13:00.437Z,76.6
2022-10-05T11:14:00.566Z,76.3
2022-10-05T11:15:00.716Z,77.1
2022-10-05T11:16:01.045Z,77.5
2022-10-05T11:17:01.004Z,77.7
2022-10-05T11:18:01.172Z,77.1
2022-10-05T11:19:00.301Z,77.3
2022-10-05T11:20:04.769Z,77.8
2022-10-05T11:21:00.592Z,78
2022-10-05T11:22:00.742Z,77.6
2022-10-05T11:23:00.905Z,77.1
2022-10-05T11:24:01.026Z,77.4
2022-10-05T11:25:01.177Z,78.4
2022-10-05T11:26:00.317Z,78
2022-10-05T11:27:00.471Z,77.9
2022-10-05T11:28:00.685Z,77.6
2022-10-05T11:29:00.763Z,78.3
2022-10-05T11:30:00.907Z,77.8
2022-10-05T11:31:01.109Z,77.6
2022-10-05T11:32:01.210Z,77.8
2022-10-05T11:33:00.378Z,78
2022-10-05T11:34:00.513Z,77.7
2022-10-05T11:35:00.652Z,77.5
2022-10-05T11:36:00.804Z,77.3
2022-10-05T11:37:00.953Z,77.9
2022-10-05T11:38:01.117Z,77.7
2022-10-05T11:39:01.257Z,77.7
2022-10-05T11:40:00.395Z,77.7
2022-10-05T11:41:00.542Z,78
2022-10-05T11:42:00.699Z,78.2
2022-10-05T11:43:00.865Z,78.4
2022-10-05T11:44:06.072Z,78.5
2022-10-05T11:45:01.132Z,78.4
2022-10-05T11:46:00.316Z,78.2
2022-10-05T11:47:00.419Z,78.5
2022-10-05T11:48:00.587Z,78.7
2022-10-05T11:49:00.745Z,79.2
2022-10-05T11:50:00.881Z,78.4
2022-10-05T11:51:01.016Z,78.2
2022-10-05T11:52:01.143Z,78.9
2022-10-05T11:53:00.288Z,78.5
2022-10-05T11:54:00.457Z,77.6
2022-10-05T11:55:11.635Z,77.6
2022-10-05T11:56:00.723Z,77.8
2022-10-05T11:57:01.276Z,77.8
2022-10-05T11:58:01.019Z,78.4
2022-10-05T11:59:01.184Z,78.3
2022-10-05T12:00:00.316Z,78
2022-10-05T12:01:00.456Z,77.9
2022-10-05T12:02:00.606Z,78
2022-10-05T12:03:00.828Z,77.5
2022-10-05T12:04:01.122Z,77.5
2022-10-05T12:05:01.070Z,77.9
2022-10-05T12:06:01.211Z,77.7
2022-10-05T12:07:00.357Z,76.4
2022-10-05T12:08:00.500Z,76.8
2022-10-05T12:09:00.645Z,76.1
2022-10-05T12:10:00.816Z,75.3
2022-10-05T12:11:00.989Z,76
2022-10-05T12:12:01.097Z,76.5
2022-10-05T12:13:01.558Z,76.7
2022-10-05T12:14:00.397Z,76.5
2022-10-05T12:15:00.544Z,77.1
2022-10-05T12:16:00.776Z,77.4
2022-10-05T12:17:00.831Z,76.4
2022-10-05T12:18:00.994Z,76.8
2022-10-05T12:19:01.142Z,76.6
2022-10-05T12:20:00.298Z,76.9
2022-10-05T12:21:00.436Z,76.3
2022-10-05T12:22:00.589Z,76.4
2022-10-05T12:23:01.198Z,76.5
2022-10-05T12:24:00.889Z,76.8
2022-10-05T12:25:01.023Z,76.8
2022-10-05T12:26:01.184Z,75.8
2022-10-05T12:27:00.322Z,75.9
2022-10-05T12:28:00.489Z,76
2022-10-05T12:29:00.651Z,76.6
2022-10-05T12:30:00.764Z,76.1
2022-10-05T12:31:01.002Z,76.1
2022-10-05T12:32:01.062Z,75.8
2022-10-05T12:33:02.367Z,74.9
2022-10-05T12:34:00.385Z,73.9
2022-10-05T12:35:02.152Z,74.1
2022-10-05T12:36:00.662Z,73.5
2022-10-05T12:37:05.008Z,74.2
2022-10-05T12:38:00.944Z,72
2022-10-05T12:39:01.132Z,72.5
2022-10-05T12:40:01.244Z,72.4
2022-10-05T12:41:00.396Z,72.7
2022-10-05T12:42:00.533Z,73
2022-10-05T12:43:00.684Z,73.5
2022-10-05T12:44:00.854Z,73
2022-10-05T12:45:00.992Z,71.5
2022-10-05T12:46:01.172Z,71.5
2022-10-05T12:47:00.272Z,71.8
2022-10-05T12:48:00.418Z,70.7
2022-10-05T12:49:00.578Z,70.9
2022-10-05T12:50:00.798Z,73
2022-10-05T12:51:00.893Z,71.9
2022-10-05T12:52:01.023Z,72
2022-10-05T12:53:01.174Z,72.1
2022-10-05T12:54:00.328Z,71.7
2022-10-05T12:55:00.472Z,71.2
2022-10-05T12:56:00.656Z,71.2
2022-10-05T12:57:00.784Z,72.1
2022-10-05T12:58:00.926Z,71.9
2022-10-05T12:59:01.083Z,71.6
2022-10-05T13:00:01.294Z,71.2
2022-10-05T13:01:00.434Z,71.6
2022-10-05T13:02:00.570Z,72
2022-10-05T13:03:00.719Z,72.7
2022-10-05T13:04:00.816Z,71.7
2022-10-05T13:05:00.958Z,71.8
2022-10-05T13:06:02.780Z,71.3
2022-10-05T13:07:00.275Z,71.2
2022-10-05T13:08:00.397Z,71.7
2022-10-05T13:09:00.562Z,72.1
2022-10-05T13:10:00.766Z,73.1
2022-10-05T13:11:02.178Z,71.8
2022-10-05T13:12:01.048Z,72.7
2022-10-05T13:13:01.162Z,72.8
2022-10-05T13:14:00.317Z,71.8
2022-10-05T13:15:00.469Z,72.2
2022-10-05T13:16:00.681Z,73.5
2022-10-05T13:17:00.789Z,72.3
2022-10-05T13:18:00.938Z,71.6
2022-10-05T13:19:01.074Z,71.6
2022-10-05T13:20:01.261Z,72.2
2022-10-05T13:21:00.361Z,72.3
2022-10-05T13:22:00.505Z,71.6
2022-10-05T13:23:00.687Z,71.3
2022-10-05T13:24:00.801Z,72
2022-10-05T13:25:00.953Z,72.4
2022-10-05T13:26:01.113Z,72